Time;durP1;ratioP1;P1;durP2;ratioP2;P2;SDS_P1;SDS_P2;PMS_P1;PMS_P2;Temp;Humidity;BMP_temperature;BMP_pressure;BME280_temperature;BME280_humidity;BME280_pressure;Samples;Min_cycle;Max_cycle;Signal;HPM_P1;HPM_P2
2023/12/30 00:01:51;;;;;;;8.00;5.50;;;;;;;10.27;100.00;99629.63;109558;1273;22152;-82
2023/12/30 00:04:25;;;;;;;8.00;5.10;;;;;;;10.31;100.00;99634.86;109274;1268;23077;-79
2023/12/30 00:07:19;;;;;;;6.90;5.10;;;;;;;10.31;100.00;99629.99;109165;1273;23050;-80
2023/12/30 00:10:34;;;;;;;;;;;;;;;;;;;;;
2023/12/30 00:13:31;;;;;;;7.00;5.30;;;;;;;10.20;100.00;99622.52;110013;1268;21981;-79
2023/12/30 00:16:49;;;;;;;9.30;5.90;;;;;;;10.18;100.00;99627.15;109557;1273;22002;-82
2023/12/30 00:20:48;;;;;;;7.00;5.70;;;;;;;10.10;100.00;99620.20;109465;1273;23045;-83
2023/12/30 00:24:14;;;;;;;6.20;4.50;;;;;;;10.03;100.00;99603.51;109021;1280;23139;-83
2023/12/30 00:28:40;;;;;;;6.00;4.50;;;;;;;10.10;100.00;99609.08;108627;1284;22585;-82
2023/12/30 00:31:33;;;;;;;7.10;4.90;;;;;;;10.03;100.00;99587.85;107401;1296;23653;-82
2023/12/30 00:34:11;;;;;;;6.60;4.20;;;;;;;10.12;100.00;99603.04;107942;1292;21981;-80
2023/12/30 00:36:45;;;;;;;8.00;4.20;;;;;;;10.15;100.00;99602.39;108018;1292;23158;-81
2023/12/30 00:39:44;;;;;;;;;;;;;;;;;;;;;
2023/12/30 00:43:32;;;;;;;7.90;4.20;;;;;;;10.22;100.00;99600.33;108076;1292;23169;-82
2023/12/30 00:47:14;;;;;;;5.30;3.90;;;;;;;10.18;100.00;99597.73;107417;1299;22032;-82
2023/12/30 00:54:11;;;;;;;6.70;3.80;;;;;;;10.48;100.00;99591.27;108913;1278;547878;-81
2023/12/30 01:01:52;;;;;;;;;;;;;;;;;;;;;
2023/12/30 01:05:32;;;;;;;4.90;3.40;;;;;;;10.33;100.00;99592.66;108696;1284;22015;-80
2023/12/30 01:08:21;;;;;;;8.20;3.60;;;;;;;10.35;100.00;99593.98;108683;1282;22033;-79
2023/12/30 01:10:58;;;;;;;4.10;3.00;;;;;;;10.39;100.00;99594.67;109807;1263;23198;-78
2023/12/30 01:13:35;;;;;;;7.10;3.10;;;;;;;10.41;100.00;99589.89;109816;1270;21973;-78
2023/12/30 01:16:21;;;;;;;4.40;3.10;;;;;;;10.41;100.00;99589.03;109727;1269;23838;-79
2023/12/30 01:18:56;;;;;;;5.30;3.40;;;;;;;10.41;100.00;99584.52;109588;1270;23695;-81
2023/12/30 01:21:34;;;;;;;5.40;3.50;;;;;;;10.44;100.00;99579.63;109739;1270;21986;-81
2023/12/30 01:24:09;;;;;;;4.60;3.40;;;;;;;10.49;100.00;99583.58;109781;1267;21979;-81
2023/12/30 01:26:53;;;;;;;5.40;3.40;;;;;;;10.49;100.00;99580.58;109735;1270;22967;-81
2023/12/30 01:29:45;;;;;;;5.10;2.90;;;;;;;10.48;100.00;99577.86;109367;1274;21980;-78
2023/12/30 01:32:28;;;;;;;4.40;3.30;;;;;;;10.38;100.00;99560.83;109479;1272;23049;-79
2023/12/30 01:35:09;;;;;;;5.60;3.60;;;;;;;10.44;100.00;99569.36;109181;1274;21980;-78
2023/12/30 01:37:51;;;;;;;4.90;3.10;;;;;;;10.44;100.00;99564.67;109267;1274;22001;-81
2023/12/30 01:40:27;;;;;;;4.70;3.30;;;;;;;10.42;100.00;99561.27;109197;1274;23064;-80
2023/12/30 01:43:27;;;;;;;3.60;2.60;;;;;;;10.39;100.00;99554.31;109004;1278;22344;-80
2023/12/30 01:46:18;;;;;;;5.40;2.90;;;;;;;10.36;100.00;99545.41;108942;1278;23670;-80
2023/12/30 01:49:00;;;;;;;7.00;3.80;;;;;;;10.32;100.00;99538.83;108988;1278;21982;-80
2023/12/30 01:51:39;;;;;;;3.80;3.10;;;;;;;10.30;100.00;99540.98;109320;1273;23724;-80
2023/12/30 01:54:26;;;;;;;4.70;3.50;;;;;;;10.19;100.00;99532.80;109489;1270;22433;-81
2023/12/30 01:57:02;;;;;;;4.00;3.00;;;;;;;10.17;100.00;99534.67;109439;1271;21974;-81
2023/12/30 01:59:40;;;;;;;4.40;3.70;;;;;;;10.16;100.00;99538.04;110181;1265;22026;-79
2023/12/30 02:02:22;;;;;;;6.10;2.80;;;;;;;10.21;100.00;99543.54;110991;1259;22323;-80
2023/12/30 02:04:57;;;;;;;2.50;2.20;;;;;;;10.20;100.00;99544.25;110439;1260;23049;-79
2023/12/30 02:07:43;;;;;;;3.70;3.10;;;;;;;10.21;100.00;99547.00;109807;1269;22296;-80
2023/12/30 02:10:21;;;;;;;3.40;2.10;;;;;;;10.21;100.00;99540.54;109366;1274;23766;-79
2023/12/30 02:13:01;;;;;;;3.40;2.30;;;;;;;10.22;100.00;99534.80;109103;1277;23037;-79
2023/12/30 02:15:35;;;;;;;4.20;2.60;;;;;;;10.23;100.00;99529.38;109076;1273;22332;-80
2023/12/30 02:18:13;;;;;;;7.20;3.10;;;;;;;10.24;100.00;99531.54;108456;1284;22005;-79
2023/12/30 02:20:47;;;;;;;4.00;2.90;;;;;;;10.25;100.00;99526.98;108535;1280;23761;-79
2023/12/30 02:23:21;;;;;;;4.30;2.90;;;;;;;10.23;100.00;99517.85;108908;1276;22021;-78
2023/12/30 02:26:01;;;;;;;4.30;2.60;;;;;;;10.29;100.00;99518.61;109203;1272;23803;-79
2023/12/30 02:28:33;;;;;;;3.70;2.60;;;;;;;10.33;100.00;99518.42;109644;1267;21980;-79
2023/12/30 02:31:08;;;;;;;3.60;2.50;;;;;;;10.35;100.00;99519.20;110147;1264;22748;-80
2023/12/30 02:33:42;;;;;;;4.20;2.50;;;;;;;10.34;100.00;99509.65;109829;1265;23154;-81
2023/12/30 02:36:18;;;;;;;4.20;2.50;;;;;;;10.35;100.00;99504.06;110052;1261;21979;-79
2023/12/30 02:38:51;;;;;;;4.10;3.00;;;;;;;10.36;100.00;99504.55;110499;1260;22718;-79
2023/12/30 02:41:22;;;;;;;3.70;2.30;;;;;;;10.34;100.00;99495.92;110612;1261;21968;-79
2023/12/30 02:44:15;;;;;;;3.40;2.60;;;;;;;10.14;100.00;99466.30;110835;1248;23721;-80
2023/12/30 02:46:58;;;;;;;3.80;2.70;;;;;;;10.13;100.00;99476.98;110882;1261;21960;-82
2023/12/30 02:49:33;;;;;;;4.10;2.50;;;;;;;10.20;100.00;99497.80;110381;1266;22042;-81
2023/12/30 02:52:23;;;;;;;4.30;2.80;;;;;;;10.20;100.00;99497.83;109493;1271;22002;-81
2023/12/30 02:55:06;;;;;;;6.20;2.60;;;;;;;10.20;100.00;99495.59;109644;1271;22151;-80
2023/12/30 02:57:45;;;;;;;2.90;2.00;;;;;;;10.19;100.00;99494.42;109250;1270;23064;-80
2023/12/30 03:00:24;;;;;;;3.50;2.20;;;;;;;10.20;100.00;99495.07;109744;1269;21981;-80
2023/12/30 03:03:10;;;;;;;;;;;;;;;10.18;100.00;99494.11;109607;1271;24097;-79
2023/12/30 03:05:47;;;;;;;2.90;2.10;;;;;;;10.06;100.00;99490.51;109593;1271;22375;-80
2023/12/30 03:08:35;;;;;;;3.40;2.20;;;;;;;10.05;100.00;99486.42;110074;1269;23623;-78
2023/12/30 03:11:11;;;;;;;3.10;1.80;;;;;;;10.09;100.00;99488.81;110321;1265;23785;-79
2023/12/30 03:14:07;;;;;;;5.00;2.40;;;;;;;10.14;100.00;99493.80;109995;1265;22139;-80
2023/12/30 03:16:44;;;;;;;4.10;2.20;;;;;;;10.15;100.00;99484.89;110779;1260;21946;-79
2023/12/30 03:19:21;;;;;;;3.70;2.20;;;;;;;10.15;100.00;99488.87;110447;1247;21971;-80
2023/12/30 03:21:56;;;;;;;;;;;;;;;10.14;100.00;99490.84;110499;1260;21939;-80
2023/12/30 03:24:31;;;;;;;2.60;2.10;;;;;;;10.03;100.00;99490.34;110380;1260;21978;-79
2023/12/30 03:27:05;;;;;;;3.50;2.20;;;;;;;10.01;100.00;99493.56;110990;1254;21954;-77
2023/12/30 03:29:37;;;;;;;3.80;2.20;;;;;;;9.99;100.00;99490.20;111149;1255;22078;-78
2023/12/30 03:32:13;;;;;;;4.10;2.10;;;;;;;9.97;100.00;99493.73;111066;1255;21944;-79
2023/12/30 03:34:51;;;;;;;3.30;2.00;;;;;;;9.96;100.00;99492.41;111067;1254;23060;-79
2023/12/30 03:37:32;;;;;;;2.80;2.00;;;;;;;9.96;100.00;99493.11;111546;1255;24283;-79
2023/12/30 03:40:14;;;;;;;3.00;2.20;;;;;;;9.99;100.00;99488.80;111007;1255;21969;-80
2023/12/30 03:42:52;;;;;;;3.00;2.10;;;;;;;10.03;100.00;99492.98;110989;1255;21969;-79
2023/12/30 03:45:28;;;;;;;3.50;2.40;;;;;;;10.06;100.00;99495.95;111042;1255;21970;-81
2023/12/30 03:47:58;;;;;;;3.20;2.20;;;;;;;10.06;100.00;99492.26;111226;1255;21970;-79
2023/12/30 03:50:32;;;;;;;2.90;2.30;;;;;;;10.07;100.00;99489.77;111358;1255;22080;-80
2023/12/30 03:53:04;;;;;;;2.60;2.00;;;;;;;10.07;100.00;99490.14;111192;1255;21972;-81
2023/12/30 03:55:41;;;;;;;4.00;2.00;;;;;;;10.05;100.00;99494.38;111120;1255;21955;-80
2023/12/30 03:58:24;;;;;;;3.10;2.00;;;;;;;10.05;100.00;99495.81;111155;1255;21957;-79
2023/12/30 04:01:13;;;;;;;2.60;1.70;;;;;;;10.05;100.00;99499.43;111188;1254;23039;-80
2023/12/30 04:03:53;;;;;;;4.50;2.10;;;;;;;10.08;100.00;99506.42;111107;1255;22008;-81
2023/12/30 04:06:50;;;;;;;3.80;2.10;;;;;;;10.09;100.00;99509.85;111316;1255;21968;-80
2023/12/30 04:09:34;;;;;;;4.10;2.20;;;;;;;10.11;100.00;99521.92;111204;1255;21957;-79
2023/12/30 04:12:06;;;;;;;6.90;2.60;;;;;;;10.14;100.00;99533.06;111405;1255;21954;-78
2023/12/30 04:14:52;;;;;;;3.10;2.20;;;;;;;10.14;100.00;99540.54;111004;1260;21960;-81
2023/12/30 04:17:35;;;;;;;3.60;2.60;;;;;;;10.12;100.00;99546.90;110897;1260;22983;-79
2023/12/30 04:20:14;;;;;;;3.20;2.50;;;;;;;10.10;100.00;99550.46;110791;1250;21963;-80
2023/12/30 04:23:00;;;;;;;4.60;2.20;;;;;;;10.08;100.00;99557.17;111024;1260;21985;-80
2023/12/30 04:25:40;;;;;;;2.90;2.00;;;;;;;10.03;100.00;99561.96;110859;1260;23064;-80
2023/12/30 04:28:29;;;;;;;2.80;1.70;;;;;;;9.98;100.00;99568.09;110873;1260;22002;-79
2023/12/30 04:30:59;;;;;;;3.60;1.90;;;;;;;9.96;100.00;99579.31;110294;1266;22977;-80
2023/12/30 04:33:46;;;;;;;;;;;;;;;9.93;100.00;99585.01;110167;1261;22803;-80
2023/12/30 04:36:26;;;;;;;3.10;1.70;;;;;;;9.84;100.00;99604.23;110499;1261;23177;-79
2023/12/30 04:39:02;;;;;;;4.70;1.80;;;;;;;9.82;100.00;99607.08;110348;1265;22932;-80
2023/12/30 04:41:39;;;;;;;2.60;1.90;;;;;;;9.83;100.00;99614.17;110363;1265;23680;-78
2023/12/30 04:44:13;;;;;;;3.70;1.50;;;;;;;9.81;100.00;99628.68;109786;1265;21972;-79
2023/12/30 04:46:47;;;;;;;3.80;1.20;;;;;;;9.75;100.00;99634.50;110248;1266;23721;-78
2023/12/30 04:49:21;;;;;;;2.70;1.40;;;;;;;9.68;100.00;99646.62;110525;1260;22979;-79
2023/12/30 04:51:55;;;;;;;2.20;1.30;;;;;;;9.61;100.00;99650.95;110846;1260;22420;-80
2023/12/30 04:54:44;;;;;;;1.40;0.80;;;;;;;9.55;100.00;99652.27;110925;1260;21998;-81
2023/12/30 04:57:38;;;;;;;1.60;1.00;;;;;;;9.48;100.00;99643.02;111065;1255;21978;-79
2023/12/30 05:00:35;;;;;;;1.60;0.90;;;;;;;9.41;100.00;99642.13;111184;1254;23775;-79
2023/12/30 05:03:11;;;;;;;3.80;1.20;;;;;;;9.28;100.00;99635.91;110850;1260;23868;-79
2023/12/30 05:05:57;;;;;;;2.60;1.50;;;;;;;9.21;100.00;99638.10;110911;1260;21982;-81
2023/12/30 05:08:51;;;;;;;3.60;2.50;;;;;;;9.17;100.00;99638.33;110925;1261;22432;-79
2023/12/30 05:11:29;;;;;;;2.30;1.20;;;;;;;9.11;100.00;99626.56;110674;1261;21980;-79
2023/12/30 05:14:03;;;;;;;4.50;4.10;;;;;;;9.05;100.00;99619.90;110928;1257;21977;-81
2023/12/30 05:17:02;;;;;;;5.30;4.80;;;;;;;8.99;100.00;99619.64;110638;1261;21966;-79
2023/12/30 05:19:56;;;;;;;2.10;1.70;;;;;;;8.89;100.00;99618.30;110871;1261;23753;-80
2023/12/30 05:22:35;;;;;;;3.40;2.00;;;;;;;8.86;100.00;99620.01;110666;1261;22992;-80
2023/12/30 05:25:39;;;;;;;2.00;1.40;;;;;;;8.82;100.00;99619.15;111023;1257;21979;-81
2023/12/30 05:28:17;;;;;;;2.30;1.40;;;;;;;8.73;100.00;99621.23;110609;1264;22009;-79
2023/12/30 05:30:58;;;;;;;2.30;1.40;;;;;;;8.65;100.00;99618.81;110537;1265;22665;-81
2023/12/30 05:33:50;;;;;;;3.10;2.40;;;;;;;8.51;100.00;99615.38;109740;1270;23485;-78
2023/12/30 05:36:36;;;;;;;2.40;1.50;;;;;;;8.50;100.00;99628.80;110106;1270;22025;-80
2023/12/30 05:39:14;;;;;;;3.50;2.80;;;;;;;8.44;100.00;99631.46;109869;1270;23710;-82
2023/12/30 05:41:49;;;;;;;5.90;4.20;;;;;;;8.35;100.00;99632.29;110226;1265;23836;-79
2023/12/30 05:44:30;;;;;;;8.20;5.50;;;;;;;8.27;100.00;99636.09;110245;1265;21968;-81
2023/12/30 05:47:04;;;;;;;12.80;9.10;;;;;;;8.23;100.00;99642.31;110728;1260;22426;-81
2023/12/30 05:49:46;;;;;;;10.60;6.30;;;;;;;8.21;100.00;99644.84;110770;1260;21972;-79
2023/12/30 05:52:43;;;;;;;8.50;4.70;;;;;;;8.17;100.00;99639.41;110646;1259;23692;-80
2023/12/30 05:55:22;;;;;;;9.30;6.00;;;;;;;8.04;100.00;99620.54;110664;1259;24120;-78
2023/12/30 05:58:04;;;;;;;15.20;8.60;;;;;;;8.12;100.00;99634.09;110935;1260;23692;-79
2023/12/30 06:00:35;;;;;;;11.10;7.40;;;;;;;8.12;100.00;99632.02;111004;1260;22244;-80
2023/12/30 06:03:06;;;;;;;10.30;5.20;;;;;;;8.03;100.00;99620.40;110687;1259;22944;-78
2023/12/30 06:06:04;;;;;;;9.90;5.80;;;;;;;8.00;100.00;99623.64;110177;1266;22477;-79
2023/12/30 06:08:41;;;;;;;20.40;16.20;;;;;;;8.07;100.00;99645.17;110107;1266;23531;-78
2023/12/30 06:11:26;;;;;;;3.70;2.30;;;;;;;8.11;100.00;99652.30;110548;1261;21972;-80
2023/12/30 06:14:07;;;;;;;3.50;1.80;;;;;;;8.11;100.00;99667.58;109917;1269;21976;-78
2023/12/30 06:16:49;;;;;;;3.00;1.80;;;;;;;8.10;100.00;99686.84;109862;1269;21987;-81
2023/12/30 06:19:22;;;;;;;5.80;4.00;;;;;;;8.11;100.00;99694.78;109453;1272;22059;-78
2023/12/30 06:22:02;;;;;;;3.90;2.90;;;;;;;8.11;100.00;99690.98;109510;1271;23132;-81
2023/12/30 06:24:36;;;;;;;3.50;2.50;;;;;;;8.10;100.00;99693.27;109309;1272;22349;-81
2023/12/30 06:27:32;;;;;;;2.50;2.30;;;;;;;8.06;100.00;99695.48;109369;1272;22869;-79
2023/12/30 06:30:07;;;;;;;2.20;1.40;;;;;;;7.98;100.00;99693.16;109322;1272;24353;-79
2023/12/30 06:32:47;;;;;;;3.00;2.30;;;;;;;7.94;100.00;99696.61;109763;1268;21969;-79
2023/12/30 06:35:36;;;;;;;2.40;1.50;;;;;;;7.90;100.00;99701.98;110230;1266;24403;-82
2023/12/30 06:38:23;;;;;;;2.90;1.50;;;;;;;7.85;100.00;99707.69;110065;1266;23062;-80
2023/12/30 06:41:14;;;;;;;2.90;1.80;;;;;;;7.80;100.00;99713.92;110120;1266;22129;-79
2023/12/30 06:44:00;;;;;;;2.80;1.60;;;;;;;7.77;100.00;99715.59;110868;1256;24353;-80
2023/12/30 06:46:53;;;;;;;3.60;1.70;;;;;;;7.75;100.00;99718.79;111311;1255;21994;-80
2023/12/30 06:50:00;;;;;;;2.20;1.50;;;;;;;7.74;100.00;99720.40;111029;1259;21957;-80
2023/12/30 06:52:51;;;;;;;2.50;1.90;;;;;;;7.74;100.00;99722.63;111021;1259;21990;-79
2023/12/30 06:55:36;;;;;;;2.50;1.70;;;;;;;7.73;100.00;99724.39;111007;1259;22116;-80
2023/12/30 06:58:17;;;;;;;2.60;1.30;;;;;;;7.74;100.00;99738.05;110436;1266;22127;-79
2023/12/30 07:00:49;;;;;;;3.20;1.90;;;;;;;7.74;100.00;99752.44;109581;1273;21989;-81
2023/12/30 07:03:26;;;;;;;5.00;3.00;;;;;;;7.73;100.00;99756.11;109125;1276;23727;-79
2023/12/30 07:06:18;;;;;;;3.60;2.30;;;;;;;7.62;100.00;99756.16;108790;1281;24324;-80
2023/12/30 07:09:08;;;;;;;4.50;2.40;;;;;;;7.69;100.00;99779.64;108871;1281;22003;-80
2023/12/30 07:11:48;;;;;;;3.00;2.00;;;;;;;7.64;100.00;99781.16;108846;1281;21984;-80
2023/12/30 07:14:42;;;;;;;2.40;1.30;;;;;;;7.62;100.00;99779.16;108650;1281;23791;-80
2023/12/30 07:17:47;;;;;;;2.90;2.40;;;;;;;7.58;100.00;99758.89;109110;1276;22199;-80
2023/12/30 07:20:51;;;;;;;4.60;2.30;;;;;;;7.54;100.00;99743.95;109880;1266;22354;-80
2023/12/30 07:23:31;;;;;;;4.40;1.60;;;;;;;7.53;100.00;99762.52;110317;1265;21991;-80
2023/12/30 07:26:16;;;;;;;4.70;1.40;;;;;;;7.52;100.00;99764.98;110223;1260;22678;-80
2023/12/30 07:29:22;;;;;;;1.80;1.30;;;;;;;7.49;100.00;99758.84;110259;1267;22014;-80
2023/12/30 07:31:55;;;;;;;2.20;1.60;;;;;;;7.50;100.00;99761.91;110026;1267;23048;-80
2023/12/30 07:34:56;;;;;;;4.90;3.90;;;;;;;7.54;100.00;99766.96;109747;1257;21977;-80
2023/12/30 07:37:45;;;;;;;4.60;3.60;;;;;;;7.55;100.00;99759.17;110320;1266;22739;-80
2023/12/30 07:43:32;;;;;;;4.00;1.80;;;;;;;7.58;100.00;99776.52;109234;1273;21980;-78
2023/12/30 07:46:33;;;;;;;7.00;5.80;;;;;;;7.56;100.00;99776.10;109259;1271;22019;-80
2023/12/30 07:49:29;;;;;;;6.10;4.30;;;;;;;7.52;100.00;99743.52;109373;1270;23055;-79
2023/12/30 07:52:26;;;;;;;6.70;5.30;;;;;;;7.49;100.00;99735.83;110032;1266;21993;-80
2023/12/30 07:55:39;;;;;;;;;;;;;;;7.46;100.00;99744.94;109500;1272;23850;-84
2023/12/30 07:58:28;;;;;;;3.70;3.30;;;;;;;7.34;100.00;99745.67;109262;1273;24436;-81
2023/12/30 08:01:11;;;;;;;5.80;4.50;;;;;;;7.36;100.00;99748.40;109519;1272;22054;-80
2023/12/30 08:04:14;;;;;;;7.60;5.70;;;;;;;7.40;100.00;99762.42;109734;1268;21942;-80
2023/12/30 08:07:13;;;;;;;8.10;7.10;;;;;;;7.43;100.00;99767.88;109705;1270;22093;-82
2023/12/30 08:10:48;;;;;;;31.60;25.40;;;;;;;7.50;100.00;99792.41;109130;1277;21997;-82
2023/12/30 08:13:42;;;;;;;10.30;7.70;;;;;;;7.56;100.00;99792.04;109111;1278;22011;-80
2023/12/30 08:16:45;;;;;;;10.50;7.20;;;;;;;7.60;100.00;99810.59;109439;1273;23881;-81
2023/12/30 08:20:13;;;;;;;11.90;8.90;;;;;;;7.60;100.00;99825.30;109802;1272;22146;-83
2023/12/30 08:23:07;;;;;;;7.40;6.60;;;;;;;7.66;100.00;99826.32;109522;1272;22113;-84
2023/12/30 08:25:59;;;;;;;10.00;8.40;;;;;;;7.69;100.00;99822.42;109617;1265;21990;-80
2023/12/30 08:28:45;;;;;;;9.10;7.10;;;;;;;7.69;100.00;99823.48;109915;1267;21978;-80
2023/12/30 08:31:28;;;;;;;11.30;7.40;;;;;;;7.67;100.00;99821.96;110303;1267;21978;-81
2023/12/30 08:34:10;;;;;;;8.40;6.50;;;;;;;7.66;100.00;99819.73;109978;1267;22003;-81
2023/12/30 08:36:51;;;;;;;7.40;4.90;;;;;;;7.67;100.00;99826.82;110073;1267;22360;-82
2023/12/30 08:39:39;;;;;;;6.90;4.80;;;;;;;7.64;100.00;99828.11;110044;1266;21994;-82
2023/12/30 08:42:34;;;;;;;12.20;9.60;;;;;;;7.60;100.00;99836.38;109951;1267;22458;-82
2023/12/30 08:45:58;;;;;;;6.70;5.00;;;;;;;7.55;100.00;99847.64;110881;1260;22967;-79
2023/12/30 08:48:41;;;;;;;28.50;25.60;;;;;;;7.54;100.00;99847.17;110547;1261;22001;-81
2023/12/30 08:52:00;;;;;;;7.00;5.30;;;;;;;7.51;100.00;99854.52;110197;1266;24300;-82
2023/12/30 08:55:12;;;;;;;6.40;4.40;;;;;;;7.45;100.00;99851.77;110348;1266;22161;-79
2023/12/30 08:59:00;;;;;;;6.40;4.20;;;;;;;7.38;100.00;99855.64;109460;1273;21990;-82
2023/12/30 09:02:46;;;;;;;;;;;;;;;;;;;;;
2023/12/30 09:07:09;;;;;;;9.70;7.30;;;;;;;7.27;100.00;99874.20;109520;1273;23084;-80
2023/12/30 09:09:41;;;;;;;6.40;4.80;;;;;;;7.26;100.00;99880.93;108921;1282;22766;-80
2023/12/30 09:24:45;;;;;;;11.60;7.80;;;;;;;9.15;100.00;99887.48;108282;1287;557114;-80
2023/12/30 09:28:33;;;;;;;6.70;5.60;;;;;;;8.76;100.00;99898.50;110675;1260;352314;-82
2023/12/30 09:31:45;;;;;;;6.20;4.40;;;;;;;8.28;100.00;99911.86;110475;1266;22067;-82
2023/12/30 09:35:32;;;;;;;4.70;3.90;;;;;;;8.03;100.00;99917.41;110379;1265;21994;-81
2023/12/30 09:39:42;;;;;;;;;;;;;;;;;;;;;
2023/12/30 09:43:29;;;;;;;;;;;;;;;;;;;;;
2023/12/30 09:50:37;;;;;;;6.50;4.90;;;;;;;7.55;100.00;99942.34;108791;1285;21766;-82
2023/12/30 09:54:28;;;;;;;;;;;;;;;;;;;;;
2023/12/30 09:56:53;;;;;;;;;;;;;;;7.49;100.00;99952.25;108225;1289;22020;-82
2023/12/30 10:06:23;;;;;;;12.60;8.40;;;;;;;7.19;100.00;99963.38;108501;1284;22097;-81
2023/12/30 10:09:19;;;;;;;;;;;;;;;;;;;;;
2023/12/30 10:13:01;;;;;;;11.40;7.20;;;;;;;7.17;100.00;99956.70;108526;1285;22070;-81
2023/12/30 10:16:25;;;;;;;;;;;;;;;;;;;;;
2023/12/30 10:23:58;;;;;;;;;;;;;;;;;;;;;
2023/12/30 10:27:03;;;;;;;;;;;;;;;;;;;;;
2023/12/30 10:30:19;;;;;;;;;;;;;;;;;;;;;
2023/12/30 10:33:25;;;;;;;5.30;3.70;;;;;;;6.92;100.00;99962.43;108482;1284;22009;-83
2023/12/30 10:39:46;;;;;;;6.80;3.40;;;;;;;6.95;100.00;99975.17;108557;1289;22015;-81
2023/12/30 10:42:53;;;;;;;;;;;;;;;;;;;;;
2023/12/30 10:46:50;;;;;;;6.70;4.00;;;;;;;6.95;100.00;99986.91;108668;1286;22008;-81
2023/12/30 10:50:20;;;;;;;;;;;;;;;;;;;;;
2023/12/30 10:54:10;;;;;;;8.90;5.80;;;;;;;6.95;100.00;99991.58;107377;1300;22029;-79
2023/12/30 10:57:25;;;;;;;8.60;5.40;;;;;;;6.99;100.00;99999.27;107656;1297;22032;-82
2023/12/30 11:00:55;;;;;;;10.20;6.30;;;;;;;7.01;100.00;100002.84;107882;1291;21923;-83
2023/12/30 11:04:11;;;;;;;8.20;5.00;;;;;;;7.03;100.00;100007.80;107649;1296;22014;-82
2023/12/30 11:07:30;;;;;;;5.00;3.90;;;;;;;7.03;100.00;100014.36;107850;1296;23759;-81
2023/12/30 11:11:01;;;;;;;9.40;4.80;;;;;;;7.02;100.00;100022.00;107642;1296;22050;-84
2023/12/30 11:14:13;;;;;;;6.10;4.00;;;;;;;7.02;100.00;100026.66;107791;1296;21789;-84
2023/12/30 11:17:37;;;;;;;6.50;3.10;;;;;;;7.05;100.00;100029.03;107751;1289;23085;-83
2023/12/30 11:20:52;;;;;;;6.30;3.50;;;;;;;7.06;100.00;100022.95;108346;1294;22013;-83
2023/12/30 11:24:06;;;;;;;9.10;5.20;;;;;;;7.07;100.00;100026.20;108347;1294;22006;-82
2023/12/30 11:30:24;;;;;;;;;;;;;;;;;;;;;
2023/12/30 11:33:41;;;;;;;5.00;2.90;;;;;;;7.21;100.00;100029.61;108885;1279;22011;-82
2023/12/30 11:36:51;;;;;;;6.30;4.10;;;;;;;7.26;100.00;100033.80;108712;1282;24317;-82
2023/12/30 11:40:04;;;;;;;9.80;5.10;;;;;;;7.31;100.00;100027.41;108636;1284;22010;-83
2023/12/30 11:43:10;;;;;;;;;;;;;;;;;;;;;
2023/12/30 11:46:06;;;;;;;9.40;4.40;;;;;;;7.37;100.00;100027.21;108595;1284;22018;-82
2023/12/30 11:49:40;;;;;;;8.50;3.60;;;;;;;7.39;100.00;100029.59;108200;1290;22081;-82
2023/12/30 11:52:59;;;;;;;6.70;3.70;;;;;;;7.40;100.00;100034.06;107763;1296;22019;-82
2023/12/30 11:57:02;;;;;;;;;;;;;;;;;;;;;
2023/12/30 12:00:48;;;;;;;10.90;6.30;;;;;;;7.35;100.00;100032.84;107108;1302;23109;-84
2023/12/30 12:07:16;;;;;;;14.90;11.20;;;;;;;7.27;100.00;100025.44;107000;1304;22026;-81
2023/12/30 12:21:58;;;;;;;;;;;;;;;;;;;;;
2023/12/30 12:33:42;;;;;;;14.40;9.40;;;;;;;8.07;100.00;100031.64;108470;1289;22022;-83
2023/12/30 12:37:12;;;;;;;;;;;;;;;;;;;;;
2023/12/30 12:39:53;;;;;;;19.10;10.10;;;;;;;7.86;100.00;100040.63;108303;1288;22031;-83
2023/12/30 12:43:19;;;;;;;20.50;13.70;;;;;;;7.78;100.00;100041.23;108453;1289;22099;-80
2023/12/30 12:46:21;;;;;;;;;;;;;;;;;;;;;
2023/12/30 12:49:19;;;;;;;12.70;9.30;;;;;;;7.60;100.00;100037.10;107280;1299;22032;-81
2023/12/30 12:52:06;;;;;;;15.90;8.80;;;;;;;7.58;100.00;100041.31;107657;1293;22052;-82
2023/12/30 12:54:47;;;;;;;11.50;7.70;;;;;;;7.58;100.00;100041.15;107827;1293;21835;-82
2023/12/30 12:57:23;;;;;;;10.90;6.60;;;;;;;7.59;100.00;100048.73;107792;1293;22155;-81
2023/12/30 12:59:56;;;;;;;14.60;7.20;;;;;;;7.58;100.00;100046.66;107840;1291;22084;-81
2023/12/30 13:02:38;;;;;;;14.80;9.10;;;;;;;7.57;100.00;100049.12;108316;1286;23813;-83
2023/12/30 13:05:08;;;;;;;11.30;8.20;;;;;;;7.58;100.00;100052.39;108461;1286;23056;-82
2023/12/30 13:08:40;;;;;;;10.80;6.60;;;;;;;7.54;100.00;100056.34;108635;1281;23023;-81
2023/12/30 13:11:44;;;;;;;;;;;;;;;;;;;;;
2023/12/30 13:15:34;;;;;;;;;;;;;;;;;;;;;
2023/12/30 13:19:03;;;;;;;10.80;6.60;;;;;;;7.38;100.00;100064.94;108827;1283;22027;-82
2023/12/30 13:22:16;;;;;;;11.20;6.30;;;;;;;7.36;100.00;100058.59;108984;1276;23622;-81
2023/12/30 13:25:21;;;;;;;6.60;4.20;;;;;;;7.33;100.00;100060.23;109296;1276;21986;-82
2023/12/30 13:29:05;;;;;;;8.30;4.30;;;;;;;7.23;100.00;100034.91;109273;1276;21993;-83
2023/12/30 13:32:21;;;;;;;;;;;;;;;;;;;;;
2023/12/30 13:38:42;;;;;;;11.30;4.70;;;;;;;7.31;100.00;100060.48;108580;1276;23061;-82
2023/12/30 13:41:53;;;;;;;15.20;7.40;;;;;;;7.33;100.00;100059.02;108543;1287;21848;-80
2023/12/30 13:44:59;;;;;;;16.00;8.90;;;;;;;7.31;100.00;100061.32;108728;1285;22023;-82
2023/12/30 13:55:39;;;;;;;;;;;;;;;;;;;;;
2023/12/30 13:59:12;;;;;;;24.90;15.20;;;;;;;7.24;100.00;100068.97;108704;1282;23623;-81
2023/12/30 14:02:38;;;;;;;30.60;19.10;;;;;;;7.23;100.00;100082.84;108782;1274;22011;-83
2023/12/30 14:05:45;;;;;;;27.20;16.80;;;;;;;7.21;100.00;100085.49;109156;1277;22018;-83
2023/12/30 14:08:54;;;;;;;30.80;17.00;;;;;;;7.09;100.00;100075.63;109349;1277;22382;-81
2023/12/30 14:12:56;;;;;;;39.10;19.60;;;;;;;7.06;100.00;100081.07;109198;1280;21991;-80
2023/12/30 14:16:21;;;;;;;31.20;19.40;;;;;;;7.26;100.00;100095.05;107933;1297;547968;-82
2023/12/30 14:20:15;;;;;;;29.40;17.20;;;;;;;7.17;100.00;100100.49;110861;1263;22042;-83
2023/12/30 14:23:40;;;;;;;32.40;15.90;;;;;;;6.98;100.00;100084.39;110578;1263;21999;-83
2023/12/30 14:27:16;;;;;;;43.70;24.80;;;;;;;7.01;100.00;100101.44;111116;1259;23019;-82
2023/12/30 14:30:32;;;;;;;42.30;28.20;;;;;;;6.94;100.00;100100.95;110626;1262;246654;-81
2023/12/30 14:34:03;;;;;;;35.30;24.50;;;;;;;6.90;100.00;100106.23;110138;1268;22528;-78
2023/12/30 14:37:12;;;;;;;;;;;;;;;;;;;;;
2023/12/30 14:40:10;;;;;;;56.60;42.60;;;;;;;6.82;100.00;100106.27;110332;1268;21990;-84
2023/12/30 14:43:07;;;;;;;32.40;21.60;;;;;;;6.76;100.00;100102.64;109762;1273;21990;-82
2023/12/30 14:46:08;;;;;;;35.60;22.80;;;;;;;6.70;100.00;100102.10;109276;1276;21994;-83
2023/12/30 14:49:21;;;;;;;38.10;24.40;;;;;;;6.67;100.00;100106.33;109200;1276;22006;-84
2023/12/30 14:52:12;;;;;;;32.90;24.20;;;;;;;6.63;100.00;100113.02;109339;1276;22472;-83
2023/12/30 14:54:49;;;;;;;34.80;24.40;;;;;;;6.62;100.00;100111.98;108922;1282;22012;-83
2023/12/30 14:58:11;;;;;;;;;;;;;;;;;;;;;
2023/12/30 15:00:50;;;;;;;37.50;25.20;;;;;;;6.64;100.00;100115.39;109277;1273;23085;-82
2023/12/30 15:03:42;;;;;;;32.90;20.50;;;;;;;6.65;100.00;100117.98;109628;1263;22046;-85
2023/12/30 15:06:48;;;;;;;29.40;20.80;;;;;;;6.62;100.00;100121.83;110879;1257;24544;-82
2023/12/30 15:09:44;;;;;;;32.00;24.10;;;;;;;6.60;100.00;100127.59;110611;1263;21985;-83
2023/12/30 15:12:30;;;;;;;28.20;23.80;;;;;;;6.61;100.00;100131.21;110719;1257;23041;-83
2023/12/30 15:15:08;;;;;;;31.30;23.10;;;;;;;6.61;100.00;100134.65;111288;1257;22134;-83
2023/12/30 15:18:19;;;;;;;;;;;;;;;;;;;;;
2023/12/30 15:21:15;;;;;;;33.50;23.70;;;;;;;6.58;100.00;100144.58;111317;1257;21960;-85
2023/12/30 15:24:15;;;;;;;40.70;31.50;;;;;;;6.52;100.00;100144.71;110558;1261;22488;-83
2023/12/30 15:27:30;;;;;;;25.30;20.90;;;;;;;6.47;100.00;100151.23;110981;1261;23715;-83
2023/12/30 15:30:29;;;;;;;30.10;22.20;;;;;;;6.43;100.00;100158.09;110964;1261;22122;-84
2023/12/30 15:33:29;;;;;;;25.30;17.80;;;;;;;6.44;100.00;100164.46;111044;1261;22601;-84
2023/12/30 15:36:30;;;;;;;26.70;19.70;;;;;;;6.40;100.00;100169.57;111769;1246;23014;-84